Aviation Digital Data Service (ADDS)

Output produced by METARs form (1500 UTC 22 April 2019)
found at http://www.aviationweather.gov/metar/data/
 
METAR text: ETHS 221420Z 13016KT 9999 FEW340 20/M02 Q1013 BLU+
Conditions at: ETHS (FASSBERG (GER-AF, DE) observed 1420 UTC 22 April 2019
Temperature: 20.0°C (68°F)
Dewpoint: -2.0°C (28°F) [RH = 23%]
Pressure (altimeter): 29.91 inches Hg (1013.0 mb)
Winds: from the SE (130 degrees) at 18 MPH (16 knots; 8.2 m/s)
Visibility: 6 or more miles (10+ km)
Ceiling: at least 12,000 feet AGL
Clouds: few clouds at 34000 feet AGL
Weather: no significant weather observed at this time

METAR text: ETHS 221320Z 13014KT 9999 FEW340 20/M03 Q1013 BLU+
Conditions at: ETHS (FASSBERG (GER-AF, DE) observed 1320 UTC 22 April 2019
Temperature: 20.0°C (68°F)
Dewpoint: -3.0°C (27°F) [RH = 21%]
Pressure (altimeter): 29.91 inches Hg (1013.0 mb)
Winds: from the SE (130 degrees) at 16 MPH (14 knots; 7.2 m/s)
Visibility: 6 or more miles (10+ km)
Ceiling: at least 12,000 feet AGL
Clouds: few clouds at 34000 feet AGL
Weather: no significant weather observed at this time

METAR text: ETHS 221220Z 13016KT 9999 FEW340 20/M02 Q1014 BLU+
Conditions at: ETHS (FASSBERG (GER-AF, DE) observed 1220 UTC 22 April 2019
Temperature: 20.0°C (68°F)
Dewpoint: -2.0°C (28°F) [RH = 23%]
Pressure (altimeter): 29.94 inches Hg (1014.0 mb)
Winds: from the SE (130 degrees) at 18 MPH (16 knots; 8.2 m/s)
Visibility: 6 or more miles (10+ km)
Ceiling: at least 12,000 feet AGL
Clouds: few clouds at 34000 feet AGL
Weather: no significant weather observed at this time

METAR text: ETHS 221120Z 11017KT 9999 FEW340 20/M04 Q1015 BLU+
Conditions at: ETHS (FASSBERG (GER-AF, DE) observed 1120 UTC 22 April 2019
Temperature: 20.0°C (68°F)
Dewpoint: -4.0°C (25°F) [RH = 19%]
Pressure (altimeter): 29.97 inches Hg (1015.0 mb)
Winds: from the ESE (110 degrees) at 20 MPH (17 knots; 8.7 m/s)
Visibility: 6 or more miles (10+ km)
Ceiling: at least 12,000 feet AGL
Clouds: few clouds at 34000 feet AGL
Weather: no significant weather observed at this time

METAR text: ETHS 221020Z 10014KT 9999 19/M01 Q1016 BLU+
Conditions at: ETHS (FASSBERG (GER-AF, DE) observed 1020 UTC 22 April 2019
Temperature: 19.0°C (66°F)
Dewpoint: -1.0°C (30°F) [RH = 26%]
Pressure (altimeter): 30.00 inches Hg (1016.0 mb)
Winds: from the E (100 degrees) at 16 MPH (14 knots; 7.2 m/s)
Visibility: 6 or more miles (10+ km)
Ceiling: unknown
Clouds: missing
Weather: no significant weather observed at this time

METAR text: ETHS 220920Z 12011KT 9999 FEW340 18/M01 Q1016 BLU+
Conditions at: ETHS (FASSBERG (GER-AF, DE) observed 0920 UTC 22 April 2019
Temperature: 18.0°C (64°F)
Dewpoint: -1.0°C (30°F) [RH = 28%]
Pressure (altimeter): 30.00 inches Hg (1016.0 mb)
Winds: from the ESE (120 degrees) at 13 MPH (11 knots; 5.7 m/s)
Visibility: 6 or more miles (10+ km)
Ceiling: at least 12,000 feet AGL
Clouds: few clouds at 34000 feet AGL
Weather: no significant weather observed at this time

METAR text: ETHS 220820Z 11008KT 9999 FEW340 17/M00 Q1017 BLU+
Conditions at: ETHS (FASSBERG (GER-AF, DE) observed 0820 UTC 22 April 2019
Temperature: 17.0°C (63°F)
Dewpoint: 0.0°C (32°F) [RH = 32%]
Pressure (altimeter): 30.03 inches Hg (1017.0 mb)
Winds: from the ESE (110 degrees) at 9 MPH (8 knots; 4.1 m/s)
Visibility: 6 or more miles (10+ km)
Ceiling: at least 12,000 feet AGL
Clouds: few clouds at 34000 feet AGL
Weather: no significant weather observed at this time

METAR text: ETHS 220720Z 11009KT 9999 FEW340 15/M01 Q1017 BLU+
Conditions at: ETHS (FASSBERG (GER-AF, DE) observed 0720 UTC 22 April 2019
Temperature: 15.0°C (59°F)
Dewpoint: -1.0°C (30°F) [RH = 33%]
Pressure (altimeter): 30.03 inches Hg (1017.0 mb)
Winds: from the ESE (110 degrees) at 10 MPH (9 knots; 4.6 m/s)
Visibility: 6 or more miles (10+ km)
Ceiling: at least 12,000 feet AGL
Clouds: few clouds at 34000 feet AGL
Weather: no significant weather observed at this time

METAR text: ETHS 220620Z 12007KT 9999 FEW340 12/M00 Q1017 BLU+
Conditions at: ETHS (FASSBERG (GER-AF, DE) observed 0620 UTC 22 April 2019
Temperature: 12.0°C (54°F)
Dewpoint: 0.0°C (32°F) [RH = 44%]
Pressure (altimeter): 30.03 inches Hg (1017.0 mb)
Winds: from the ESE (120 degrees) at 8 MPH (7 knots; 3.6 m/s)
Visibility: 6 or more miles (10+ km)
Ceiling: at least 12,000 feet AGL
Clouds: few clouds at 34000 feet AGL
Weather: no significant weather observed at this time

METAR text: ETHS 220520Z 10007KT 9999 FEW340 08/00 Q1017 BLU+
Conditions at: ETHS (FASSBERG (GER-AF, DE) observed 0520 UTC 22 April 2019
Temperature: 8.0°C (46°F)
Dewpoint: 0.0°C (32°F) [RH = 57%]
Pressure (altimeter): 30.03 inches Hg (1017.0 mb)
Winds: from the E (100 degrees) at 8 MPH (7 knots; 3.6 m/s)
Visibility: 6 or more miles (10+ km)
Ceiling: at least 12,000 feet AGL
Clouds: few clouds at 34000 feet AGL
Weather: no significant weather observed at this time

METAR text: ETHS 220420Z 09006KT 9999 FEW340 05/M01 Q1017 BLU+
Conditions at: ETHS (FASSBERG (GER-AF, DE) observed 0420 UTC 22 April 2019
Temperature: 5.0°C (41°F)
Dewpoint: -1.0°C (30°F) [RH = 65%]
Pressure (altimeter): 30.03 inches Hg (1017.0 mb)
Winds: from the E (90 degrees) at 7 MPH (6 knots; 3.1 m/s)
Visibility: 6 or more miles (10+ km)
Ceiling: at least 12,000 feet AGL
Clouds: few clouds at 34000 feet AGL
Weather: no significant weather observed at this time

METAR text: ETHS 220320Z 09006KT 9999 06/M01 Q1017 BLU+
Conditions at: ETHS (FASSBERG (GER-AF, DE) observed 0320 UTC 22 April 2019
Temperature: 6.0°C (43°F)
Dewpoint: -1.0°C (30°F) [RH = 61%]
Pressure (altimeter): 30.03 inches Hg (1017.0 mb)
Winds: from the E (90 degrees) at 7 MPH (6 knots; 3.1 m/s)
Visibility: 6 or more miles (10+ km)
Ceiling: unknown
Clouds: missing
Weather: no significant weather observed at this time

METAR text: ETHS 220220Z 09006KT 9999 06/M01 Q1018 BLU+
Conditions at: ETHS (FASSBERG (GER-AF, DE) observed 0220 UTC 22 April 2019
Temperature: 6.0°C (43°F)
Dewpoint: -1.0°C (30°F) [RH = 61%]
Pressure (altimeter): 30.06 inches Hg (1018.0 mb)
Winds: from the E (90 degrees) at 7 MPH (6 knots; 3.1 m/s)
Visibility: 6 or more miles (10+ km)
Ceiling: unknown
Clouds: missing
Weather: no significant weather observed at this time

METAR text: ETHS 220120Z 09007KT 9999 07/M01 Q1018 BLU+
Conditions at: ETHS (FASSBERG (GER-AF, DE) observed 0120 UTC 22 April 2019
Temperature: 7.0°C (45°F)
Dewpoint: -1.0°C (30°F) [RH = 57%]
Pressure (altimeter): 30.06 inches Hg (1018.0 mb)
Winds: from the E (90 degrees) at 8 MPH (7 knots; 3.6 m/s)
Visibility: 6 or more miles (10+ km)
Ceiling: unknown
Clouds: missing
Weather: no significant weather observed at this time

METAR text: ETHS 220020Z 10007KT 9999 FEW340 07/M01 Q1018 BLU+
Conditions at: ETHS (FASSBERG (GER-AF, DE) observed 0020 UTC 22 April 2019
Temperature: 7.0°C (45°F)
Dewpoint: -1.0°C (30°F) [RH = 57%]
Pressure (altimeter): 30.06 inches Hg (1018.0 mb)
Winds: from the E (100 degrees) at 8 MPH (7 knots; 3.6 m/s)
Visibility: 6 or more miles (10+ km)
Ceiling: at least 12,000 feet AGL
Clouds: few clouds at 34000 feet AGL
Weather: no significant weather observed at this time

METAR text: ETHS 212320Z 10007KT 9999 FEW340 06/M01 Q1018 BLU+
Conditions at: ETHS (FASSBERG (GER-AF, DE) observed 2320 UTC 21 April 2019
Temperature: 6.0°C (43°F)
Dewpoint: -1.0°C (30°F) [RH = 61%]
Pressure (altimeter): 30.06 inches Hg (1018.0 mb)
Winds: from the E (100 degrees) at 8 MPH (7 knots; 3.6 m/s)
Visibility: 6 or more miles (10+ km)
Ceiling: at least 12,000 feet AGL
Clouds: few clouds at 34000 feet AGL
Weather: no significant weather observed at this time

METAR text: ETHS 212220Z 10003KT 9999 FEW340 07/M02 Q1018 BLU+
Conditions at: ETHS (FASSBERG (GER-AF, DE) observed 2220 UTC 21 April 2019
Temperature: 7.0°C (45°F)
Dewpoint: -2.0°C (28°F) [RH = 53%]
Pressure (altimeter): 30.06 inches Hg (1018.0 mb)
Winds: from the E (100 degrees) at 3 MPH (3 knots; 1.5 m/s)
Visibility: 6 or more miles (10+ km)
Ceiling: at least 12,000 feet AGL
Clouds: few clouds at 34000 feet AGL
Weather: no significant weather observed at this time

METAR text: ETHS 212120Z 10003KT 9999 FEW340 08/M02 Q1019 BLU+
Conditions at: ETHS (FASSBERG (GER-AF, DE) observed 2120 UTC 21 April 2019
Temperature: 8.0°C (46°F)
Dewpoint: -2.0°C (28°F) [RH = 49%]
Pressure (altimeter): 30.09 inches Hg (1019.0 mb)
Winds: from the E (100 degrees) at 3 MPH (3 knots; 1.5 m/s)
Visibility: 6 or more miles (10+ km)
Ceiling: at least 12,000 feet AGL
Clouds: few clouds at 34000 feet AGL
Weather: no significant weather observed at this time

METAR text: ETHS 212020Z 09005KT 9999 FEW340 09/M02 Q1019 BLU+
Conditions at: ETHS (FASSBERG (GER-AF, DE) observed 2020 UTC 21 April 2019
Temperature: 9.0°C (48°F)
Dewpoint: -2.0°C (28°F) [RH = 46%]
Pressure (altimeter): 30.09 inches Hg (1019.0 mb)
Winds: from the E (90 degrees) at 6 MPH (5 knots; 2.6 m/s)
Visibility: 6 or more miles (10+ km)
Ceiling: at least 12,000 feet AGL
Clouds: few clouds at 34000 feet AGL
Weather: no significant weather observed at this time

METAR text: ETHS 211920Z 10005KT 9999 FEW340 12/M02 Q1019 BLU+
Conditions at: ETHS (FASSBERG (GER-AF, DE) observed 1920 UTC 21 April 2019
Temperature: 12.0°C (54°F)
Dewpoint: -2.0°C (28°F) [RH = 38%]
Pressure (altimeter): 30.09 inches Hg (1019.0 mb)
Winds: from the E (100 degrees) at 6 MPH (5 knots; 2.6 m/s)
Visibility: 6 or more miles (10+ km)
Ceiling: at least 12,000 feet AGL
Clouds: few clouds at 34000 feet AGL
Weather: no significant weather observed at this time

METAR text: ETHS 211820Z 09006KT 9999 FEW340 16/M02 Q1019 BLU+
Conditions at: ETHS (FASSBERG (GER-AF, DE) observed 1820 UTC 21 April 2019
Temperature: 16.0°C (61°F)
Dewpoint: -2.0°C (28°F) [RH = 29%]
Pressure (altimeter): 30.09 inches Hg (1019.0 mb)
Winds: from the E (90 degrees) at 7 MPH (6 knots; 3.1 m/s)
Visibility: 6 or more miles (10+ km)
Ceiling: at least 12,000 feet AGL
Clouds: few clouds at 34000 feet AGL
Weather: no significant weather observed at this time

METAR text: ETHS 211720Z 10008KT 9999 FEW360 20/M03 Q1019 BLU+
Conditions at: ETHS (FASSBERG (GER-AF, DE) observed 1720 UTC 21 April 2019
Temperature: 20.0°C (68°F)
Dewpoint: -3.0°C (27°F) [RH = 21%]
Pressure (altimeter): 30.09 inches Hg (1019.0 mb)
Winds: from the E (100 degrees) at 9 MPH (8 knots; 4.1 m/s)
Visibility: 6 or more miles (10+ km)
Ceiling: at least 12,000 feet AGL
Clouds: few clouds at 36000 feet AGL
Weather: no significant weather observed at this time

METAR text: ETHS 211620Z 10010KT 9999 FEW360 21/M03 Q1019 BLU+
Conditions at: ETHS (FASSBERG (GER-AF, DE) observed 1620 UTC 21 April 2019
Temperature: 21.0°C (70°F)
Dewpoint: -3.0°C (27°F) [RH = 20%]
Pressure (altimeter): 30.09 inches Hg (1019.0 mb)
Winds: from the E (100 degrees) at 12 MPH (10 knots; 5.1 m/s)
Visibility: 6 or more miles (10+ km)
Ceiling: at least 12,000 feet AGL
Clouds: few clouds at 36000 feet AGL
Weather: no significant weather observed at this time

METAR text: ETHS 211520Z 10008KT 9999 FEW360 22/M04 Q1019 BLU+
Conditions at: ETHS (FASSBERG (GER-AF, DE) observed 1520 UTC 21 April 2019
Temperature: 22.0°C (72°F)
Dewpoint: -4.0°C (25°F) [RH = 17%]
Pressure (altimeter): 30.09 inches Hg (1019.0 mb)
Winds: from the E (100 degrees) at 9 MPH (8 knots; 4.1 m/s)
Visibility: 6 or more miles (10+ km)
Ceiling: at least 12,000 feet AGL
Clouds: few clouds at 36000 feet AGL
Weather: no significant weather observed at this time

METAR text: ETHS 211420Z 08009KT 9999 FEW360 22/M05 Q1020 BLU+
Conditions at: ETHS (FASSBERG (GER-AF, DE) observed 1420 UTC 21 April 2019
Temperature: 22.0°C (72°F)
Dewpoint: -5.0°C (23°F) [RH = 16%]
Pressure (altimeter): 30.12 inches Hg (1020.0 mb)
Winds: from the E (80 degrees) at 10 MPH (9 knots; 4.6 m/s)
Visibility: 6 or more miles (10+ km)
Ceiling: at least 12,000 feet AGL
Clouds: few clouds at 36000 feet AGL
Weather: no significant weather observed at this time

METAR text: ETHS 211320Z 10007KT 9999 FEW360 22/M05 Q1021 BLU+
Conditions at: ETHS (FASSBERG (GER-AF, DE) observed 1320 UTC 21 April 2019
Temperature: 22.0°C (72°F)
Dewpoint: -5.0°C (23°F) [RH = 16%]
Pressure (altimeter): 30.15 inches Hg (1021.0 mb)
Winds: from the E (100 degrees) at 8 MPH (7 knots; 3.6 m/s)
Visibility: 6 or more miles (10+ km)
Ceiling: at least 12,000 feet AGL
Clouds: few clouds at 36000 feet AGL
Weather: no significant weather observed at this time

METAR text: ETHS 211220Z 31004KT 9999 FEW360 21/M03 Q1022 BLU+
Conditions at: ETHS (FASSBERG (GER-AF, DE) observed 1220 UTC 21 April 2019
Temperature: 21.0°C (70°F)
Dewpoint: -3.0°C (27°F) [RH = 20%]
Pressure (altimeter): 30.18 inches Hg (1022.0 mb)
Winds: from the NW (310 degrees) at 5 MPH (4 knots; 2.1 m/s)
Visibility: 6 or more miles (10+ km)
Ceiling: at least 12,000 feet AGL
Clouds: few clouds at 36000 feet AGL
Weather: no significant weather observed at this time

METAR text: ETHS 211120Z 11007KT 9999 FEW360 20/M01 Q1022 BLU+
Conditions at: ETHS (FASSBERG (GER-AF, DE) observed 1120 UTC 21 April 2019
Temperature: 20.0°C (68°F)
Dewpoint: -1.0°C (30°F) [RH = 24%]
Pressure (altimeter): 30.18 inches Hg (1022.0 mb)
Winds: from the ESE (110 degrees) at 8 MPH (7 knots; 3.6 m/s)
Visibility: 6 or more miles (10+ km)
Ceiling: at least 12,000 feet AGL
Clouds: few clouds at 36000 feet AGL
Weather: no significant weather observed at this time

METAR text: ETHS 211020Z 08006KT 9999 FEW360 19/M02 Q1023 BLU+
Conditions at: ETHS (FASSBERG (GER-AF, DE) observed 1020 UTC 21 April 2019
Temperature: 19.0°C (66°F)
Dewpoint: -2.0°C (28°F) [RH = 24%]
Pressure (altimeter): 30.21 inches Hg (1023.0 mb)
Winds: from the E (80 degrees) at 7 MPH (6 knots; 3.1 m/s)
Visibility: 6 or more miles (10+ km)
Ceiling: at least 12,000 feet AGL
Clouds: few clouds at 36000 feet AGL
Weather: no significant weather observed at this time

METAR text: ETHS 210920Z 11008KT 9999 FEW360 19/M02 Q1024 BLU+
Conditions at: ETHS (FASSBERG (GER-AF, DE) observed 0920 UTC 21 April 2019
Temperature: 19.0°C (66°F)
Dewpoint: -2.0°C (28°F) [RH = 24%]
Pressure (altimeter): 30.24 inches Hg (1024.0 mb)
Winds: from the ESE (110 degrees) at 9 MPH (8 knots; 4.1 m/s)
Visibility: 6 or more miles (10+ km)
Ceiling: at least 12,000 feet AGL
Clouds: few clouds at 36000 feet AGL
Weather: no significant weather observed at this time

METAR text: ETHS 210820Z 10004KT 9999 FEW350 16/01 Q1024 BLU+
Conditions at: ETHS (FASSBERG (GER-AF, DE) observed 0820 UTC 21 April 2019
Temperature: 16.0°C (61°F)
Dewpoint: 1.0°C (34°F) [RH = 36%]
Pressure (altimeter): 30.24 inches Hg (1024.0 mb)
Winds: from the E (100 degrees) at 5 MPH (4 knots; 2.1 m/s)
Visibility: 6 or more miles (10+ km)
Ceiling: at least 12,000 feet AGL
Clouds: few clouds at 35000 feet AGL
Weather: no significant weather observed at this time

METAR text: ETHS 210720Z 08004KT 9999 FEW350 12/01 Q1025 BLU+
Conditions at: ETHS (FASSBERG (GER-AF, DE) observed 0720 UTC 21 April 2019
Temperature: 12.0°C (54°F)
Dewpoint: 1.0°C (34°F) [RH = 47%]
Pressure (altimeter): 30.27 inches Hg (1025.0 mb)
Winds: from the E (80 degrees) at 5 MPH (4 knots; 2.1 m/s)
Visibility: 6 or more miles (10+ km)
Ceiling: at least 12,000 feet AGL
Clouds: few clouds at 35000 feet AGL
Weather: no significant weather observed at this time

METAR text: ETHS 210620Z 09004KT 9999 08/01 Q1025 BLU+
Conditions at: ETHS (FASSBERG (GER-AF, DE) observed 0620 UTC 21 April 2019
Temperature: 8.0°C (46°F)
Dewpoint: 1.0°C (34°F) [RH = 61%]
Pressure (altimeter): 30.27 inches Hg (1025.0 mb)
Winds: from the E (90 degrees) at 5 MPH (4 knots; 2.1 m/s)
Visibility: 6 or more miles (10+ km)
Ceiling: unknown
Clouds: missing
Weather: no significant weather observed at this time

METAR text: ETHS 210520Z 08002KT 9999 FEW340 04/00 Q1025 BLU+
Conditions at: ETHS (FASSBERG (GER-AF, DE) observed 0520 UTC 21 April 2019
Temperature: 4.0°C (39°F)
Dewpoint: 0.0°C (32°F) [RH = 75%]
Pressure (altimeter): 30.27 inches Hg (1025.0 mb)
Winds: from the E (80 degrees) at 2 MPH (2 knots; 1.0 m/s)
Visibility: 6 or more miles (10+ km)
Ceiling: at least 12,000 feet AGL
Clouds: few clouds at 34000 feet AGL
Weather: no significant weather observed at this time

METAR text: ETHS 210420Z 10001KT 9999 FEW340 00/M02 Q1026 BLU+
Conditions at: ETHS (FASSBERG (GER-AF, DE) observed 0420 UTC 21 April 2019
Temperature: 0.0°C (32°F)
Dewpoint: -2.0°C (28°F) [RH = 86%]
Pressure (altimeter): 30.30 inches Hg (1026.0 mb)
Winds: from the E (100 degrees) at 1 MPH (1 knots; 0.5 m/s)
Visibility: 6 or more miles (10+ km)
Ceiling: at least 12,000 feet AGL
Clouds: few clouds at 34000 feet AGL
Weather: no significant weather observed at this time

METAR text: ETHS 210320Z 06001KT 9999 FEW340 03/M01 Q1026 BLU+
Conditions at: ETHS (FASSBERG (GER-AF, DE) observed 0320 UTC 21 April 2019
Temperature: 3.0°C (37°F)
Dewpoint: -1.0°C (30°F) [RH = 75%]
Pressure (altimeter): 30.30 inches Hg (1026.0 mb)
Winds: from the ENE (60 degrees) at 1 MPH (1 knots; 0.5 m/s)
Visibility: 6 or more miles (10+ km)
Ceiling: at least 12,000 feet AGL
Clouds: few clouds at 34000 feet AGL
Weather: no significant weather observed at this time